Time;durP1;ratioP1;P1;durP2;ratioP2;P2;SDS_P1;SDS_P2;PMS_P1;PMS_P2;Temp;Humidity;BMP_temperature;BMP_pressure;BME280_temperature;BME280_humidity;BME280_pressure;Samples;Min_cycle;Max_cycle;Signal;HPM_P1;HPM_P2
2021/05/10 00:01:27;;;;;;;0.10;0.10;;;12.30;95.10;;;;;;6212897;23;20024;-76
2021/05/10 00:03:52;;;;;;;0.10;0.10;;;12.20;95.10;;;;;;6214086;23;20439;-76
2021/05/10 00:06:18;;;;;;;0.10;0.10;;;12.20;95.40;;;;;;6214589;23;20004;-76
2021/05/10 00:08:45;;;;;;;0.10;0.10;;;12.20;95.30;;;;;;6214695;23;20075;-76
2021/05/10 00:11:11;;;;;;;0.10;0.10;;;12.20;95.20;;;;;;6213273;23;20352;-76
2021/05/10 00:13:41;;;;;;;0.10;0.10;;;12.20;95.00;;;;;;6212707;23;20078;-76
2021/05/10 00:16:07;;;;;;;0.10;0.10;;;12.20;94.90;;;;;;6213304;23;20420;-76
2021/05/10 00:18:33;;;;;;;0.10;0.10;;;12.10;94.60;;;;;;6214266;23;20005;-76
2021/05/10 00:20:59;;;;;;;0.10;0.10;;;12.20;94.60;;;;;;6213811;23;20012;-76
2021/05/10 00:23:24;;;;;;;0.10;0.10;;;12.20;94.70;;;;;;6214469;23;20004;-75
2021/05/10 00:25:50;;;;;;;0.10;0.10;;;12.20;94.90;;;;;;6214832;23;20042;-76
2021/05/10 00:28:16;;;;;;;0.10;0.10;;;12.20;94.90;;;;;;6214391;23;20023;-76
2021/05/10 00:30:42;;;;;;;0.10;0.10;;;12.20;95.00;;;;;;6214634;23;20008;-76
2021/05/10 00:33:08;;;;;;;0.10;0.10;;;12.10;95.00;;;;;;6213141;23;20034;-76
2021/05/10 00:35:34;;;;;;;0.10;0.10;;;12.10;95.10;;;;;;6214149;23;20012;-76
2021/05/10 00:37:59;;;;;;;0.10;0.10;;;12.20;95.20;;;;;;6214397;23;20000;-76
2021/05/10 00:40:29;;;;;;;0.10;0.10;;;12.10;95.00;;;;;;6214513;23;20404;-76
2021/05/10 00:42:55;;;;;;;0.10;0.10;;;12.10;95.10;;;;;;6214699;23;20001;-76
2021/05/10 00:45:22;;;;;;;0.10;0.10;;;12.10;95.20;;;;;;6214152;23;20003;-76
2021/05/10 00:47:48;;;;;;;0.10;0.10;;;12.10;94.90;;;;;;6214414;23;20012;-76
2021/05/10 00:50:14;;;;;;;0.10;0.10;;;12.00;95.20;;;;;;6214194;23;20055;-76
2021/05/10 00:52:40;;;;;;;0.10;0.10;;;12.00;95.30;;;;;;6213729;23;20067;-76
2021/05/10 00:55:09;;;;;;;0.10;0.10;;;12.00;95.10;;;;;;6212351;23;20432;-76
2021/05/10 00:57:47;;;;;;;0.10;0.10;;;12.00;95.10;;;;;;6214175;23;20027;-76
2021/05/10 01:00:14;;;;;;;0.10;0.10;;;11.90;95.10;;;;;;6214144;23;20011;-76
2021/05/10 01:02:40;;;;;;;0.10;0.10;;;11.90;95.50;;;;;;6214069;23;19995;-76
2021/05/10 01:05:08;;;;;;;0.10;0.10;;;11.90;95.20;;;;;;6212582;23;20035;-76
2021/05/10 01:07:33;;;;;;;;;;;11.90;95.10;;;;;;6212883;23;20456;-76
2021/05/10 01:10:00;;;;;;;0.13;0.13;;;12.00;94.90;;;;;;6213154;23;19935;-76
2021/05/10 01:12:26;;;;;;;;;;;12.20;94.70;;;;;;6214599;23;20436;-76
2021/05/10 01:14:52;;;;;;;0.10;0.10;;;12.30;94.30;;;;;;6213843;23;19939;-76
2021/05/10 01:17:18;;;;;;;0.10;0.10;;;12.40;94.10;;;;;;6214215;23;20495;-76
2021/05/10 01:19:44;;;;;;;0.10;0.10;;;12.40;93.60;;;;;;6213865;23;20032;-76
2021/05/10 01:22:10;;;;;;;0.10;0.10;;;12.40;93.50;;;;;;6214241;23;20306;-76
2021/05/10 01:24:36;;;;;;;0.10;0.10;;;12.30;93.60;;;;;;6214036;23;20000;-77
2021/05/10 01:27:02;;;;;;;0.10;0.10;;;12.30;93.70;;;;;;6187630;23;20108;-75
2021/05/10 01:29:29;;;;;;;0.10;0.10;;;12.20;93.80;;;;;;6213786;23;20076;-76
2021/05/10 01:31:54;;;;;;;0.10;0.10;;;12.20;93.80;;;;;;6213623;23;20030;-76
2021/05/10 01:34:20;;;;;;;0.10;0.10;;;12.20;94.00;;;;;;6214150;23;20007;-77
2021/05/10 01:36:46;;;;;;;0.10;0.10;;;12.10;93.90;;;;;;6213900;23;20490;-76
2021/05/10 01:39:12;;;;;;;0.10;0.10;;;12.10;93.90;;;;;;6213948;23;20004;-76
2021/05/10 01:41:37;;;;;;;0.10;0.10;;;12.10;93.80;;;;;;6214663;23;20004;-76
2021/05/10 01:44:03;;;;;;;0.10;0.10;;;12.10;93.80;;;;;;6213833;23;20005;-76
2021/05/10 01:46:29;;;;;;;0.10;0.10;;;12.10;93.70;;;;;;6214185;23;20036;-76
2021/05/10 01:48:55;;;;;;;0.10;0.10;;;12.10;93.70;;;;;;6213953;23;20099;-76
2021/05/10 01:51:25;;;;;;;0.10;0.10;;;12.10;93.70;;;;;;6187139;23;20439;-76
2021/05/10 01:53:52;;;;;;;0.10;0.10;;;12.10;93.60;;;;;;6213904;23;20005;-76
2021/05/10 01:56:18;;;;;;;0.10;0.10;;;12.10;93.80;;;;;;6187390;23;20004;-76
2021/05/10 01:58:51;;;;;;;0.10;0.10;;;12.10;93.80;;;;;;6213767;23;20710;-76
2021/05/10 02:01:17;;;;;;;0.10;0.10;;;12.10;93.80;;;;;;6213950;23;20336;-76
2021/05/10 02:03:43;;;;;;;0.10;0.10;;;12.10;93.70;;;;;;6213502;23;20007;-76
2021/05/10 02:06:09;;;;;;;0.10;0.10;;;12.10;93.50;;;;;;6212160;23;20005;-76
2021/05/10 02:08:34;;;;;;;0.10;0.10;;;12.10;93.70;;;;;;6213490;23;20051;-76
2021/05/10 02:11:00;;;;;;;0.10;0.10;;;12.10;93.60;;;;;;6213694;23;20016;-76
2021/05/10 02:13:26;;;;;;;0.10;0.10;;;12.10;93.60;;;;;;6213480;23;20000;-76
2021/05/10 02:15:57;;;;;;;0.10;0.10;;;12.00;93.60;;;;;;6213366;23;20013;-75
2021/05/10 02:18:25;;;;;;;0.10;0.10;;;12.00;93.80;;;;;;6213569;23;20270;-76
2021/05/10 02:20:51;;;;;;;0.10;0.10;;;11.90;94.00;;;;;;6187142;23;20027;-76
2021/05/10 02:23:20;;;;;;;0.10;0.10;;;11.90;94.00;;;;;;6213455;23;19997;-76
2021/05/10 02:25:50;;;;;;;0.10;0.10;;;11.90;93.80;;;;;;6213148;23;20000;-76
2021/05/10 02:28:18;;;;;;;0.10;0.10;;;11.90;93.80;;;;;;6213218;23;20536;-75
2021/05/10 02:30:45;;;;;;;0.10;0.10;;;11.90;93.60;;;;;;6213496;23;20015;-76
2021/05/10 02:33:16;;;;;;;0.10;0.10;;;11.90;93.60;;;;;;6213534;23;20004;-76
2021/05/10 02:35:42;;;;;;;0.10;0.10;;;11.90;93.50;;;;;;6213092;23;20012;-76
2021/05/10 02:38:09;;;;;;;0.10;0.10;;;12.00;93.50;;;;;;6213461;23;20001;-76
2021/05/10 02:40:35;;;;;;;0.10;0.10;;;12.10;93.20;;;;;;6213190;23;20061;-77
2021/05/10 02:43:00;;;;;;;0.10;0.10;;;12.10;93.40;;;;;;6211694;23;20012;-76
2021/05/10 02:45:26;;;;;;;0.10;0.10;;;12.00;93.30;;;;;;6213201;23;20309;-76
2021/05/10 02:47:52;;;;;;;0.10;0.10;;;12.00;93.00;;;;;;6211837;23;20032;-76
2021/05/10 02:50:21;;;;;;;0.10;0.10;;;12.00;92.90;;;;;;6213013;23;20005;-77
2021/05/10 02:52:48;;;;;;;0.10;0.10;;;12.10;92.90;;;;;;6213110;23;20000;-76
2021/05/10 02:55:14;;;;;;;0.10;0.10;;;12.10;92.50;;;;;;6213052;23;20031;-76
2021/05/10 02:57:40;;;;;;;0.10;0.10;;;12.10;92.70;;;;;;6213397;23;20055;-75
2021/05/10 03:00:08;;;;;;;0.10;0.10;;;12.10;92.70;;;;;;6212768;23;20009;-76
2021/05/10 03:02:34;;;;;;;0.10;0.10;;;12.00;92.80;;;;;;6213437;23;20001;-76
2021/05/10 03:05:00;;;;;;;0.10;0.10;;;12.00;92.70;;;;;;6212882;23;20280;-76
2021/05/10 03:07:26;;;;;;;0.10;0.10;;;12.00;92.90;;;;;;6213168;23;20042;-76
2021/05/10 03:09:51;;;;;;;0.10;0.10;;;11.90;92.90;;;;;;6212758;23;20428;-76
2021/05/10 03:12:17;;;;;;;0.10;0.10;;;11.90;92.90;;;;;;6213377;23;20065;-76
2021/05/10 03:14:43;;;;;;;0.10;0.10;;;11.90;92.80;;;;;;6212946;23;20481;-76
2021/05/10 03:17:08;;;;;;;0.20;0.20;;;11.80;92.70;;;;;;6212922;23;20004;-75
2021/05/10 03:19:34;;;;;;;0.10;0.10;;;11.80;92.80;;;;;;6212995;23;20005;-76
2021/05/10 03:22:00;;;;;;;0.10;0.10;;;11.80;92.90;;;;;;6212822;23;20032;-76
2021/05/10 03:24:26;;;;;;;0.10;0.10;;;11.70;92.70;;;;;;6212874;23;20063;-76
2021/05/10 03:26:51;;;;;;;0.15;0.15;;;11.70;92.90;;;;;;6211327;23;20013;-76
2021/05/10 03:29:17;;;;;;;0.10;0.10;;;11.70;92.90;;;;;;6213000;23;20083;-76
2021/05/10 03:31:43;;;;;;;0.10;0.10;;;11.70;92.80;;;;;;6213060;23;20497;-76
2021/05/10 03:34:09;;;;;;;0.15;0.15;;;11.70;92.90;;;;;;6212739;23;20560;-76
2021/05/10 03:36:34;;;;;;;0.20;0.20;;;11.70;92.70;;;;;;6212734;23;20044;-76
2021/05/10 03:39:04;;;;;;;0.10;0.10;;;11.60;93.20;;;;;;6186124;23;20009;-76
2021/05/10 03:41:30;;;;;;;0.20;0.20;;;11.60;93.20;;;;;;6213130;23;19997;-76
2021/05/10 03:43:58;;;;;;;0.10;0.10;;;11.60;93.10;;;;;;6212629;23;20059;-76
2021/05/10 03:46:25;;;;;;;0.10;0.10;;;11.60;93.20;;;;;;6212926;23;20257;-76
2021/05/10 03:48:51;;;;;;;0.10;0.10;;;11.60;93.30;;;;;;6212688;23;20039;-76
2021/05/10 03:51:17;;;;;;;0.10;0.10;;;11.60;93.30;;;;;;6212846;23;20008;-76
2021/05/10 03:53:43;;;;;;;0.10;0.10;;;11.60;93.10;;;;;;6212760;23;20047;-76
2021/05/10 03:56:10;;;;;;;0.10;0.10;;;11.70;93.10;;;;;;6212801;23;20032;-76
2021/05/10 03:58:39;;;;;;;0.10;0.10;;;11.70;93.00;;;;;;6212756;23;20502;-77
2021/05/10 04:01:05;;;;;;;0.10;0.10;;;11.70;92.70;;;;;;6213161;23;20012;-76
2021/05/10 04:14:25;;;;;;;0.10;0.10;;;12.30;91.50;;;;;;6212969;23;20011;-76
2021/05/10 04:16:51;;;;;;;0.10;0.10;;;12.50;91.10;;;;;;6212790;23;20043;-76
2021/05/10 04:19:16;;;;;;;0.10;0.10;;;12.60;90.80;;;;;;6212615;23;19996;-76
2021/05/10 04:21:43;;;;;;;0.10;0.10;;;12.70;90.50;;;;;;6212661;23;20001;-76
2021/05/10 04:24:09;;;;;;;0.20;0.20;;;12.80;90.50;;;;;;6212760;23;20082;-77
2021/05/10 04:26:35;;;;;;;0.10;0.10;;;12.90;90.30;;;;;;6212665;23;19996;-76
2021/05/10 04:29:01;;;;;;;0.10;0.10;;;13.00;90.10;;;;;;6212511;23;20005;-76
2021/05/10 04:31:26;;;;;;;0.10;0.10;;;13.10;89.60;;;;;;6212950;23;20015;-76
2021/05/10 04:33:52;;;;;;;0.10;0.10;;;13.20;89.00;;;;;;6212257;23;19996;-75
2021/05/10 04:36:18;;;;;;;0.10;0.10;;;13.40;88.70;;;;;;6212518;23;20017;-76
2021/05/10 04:38:44;;;;;;;0.10;0.10;;;13.50;87.70;;;;;;6212469;23;20436;-76
2021/05/10 04:41:10;;;;;;;0.10;0.10;;;13.50;87.30;;;;;;6211333;23;19996;-76
2021/05/10 04:43:37;;;;;;;0.10;0.10;;;13.60;87.70;;;;;;6212103;23;20011;-76
2021/05/10 04:46:02;;;;;;;0.10;0.10;;;13.60;87.90;;;;;;6211211;23;20015;-78
2021/05/10 04:48:29;;;;;;;0.10;0.10;;;13.70;86.60;;;;;;6212943;23;20377;-77
2021/05/10 04:50:55;;;;;;;0.10;0.10;;;13.80;86.70;;;;;;6214554;23;20063;-77
2021/05/10 04:53:21;;;;;;;0.10;0.10;;;13.90;85.80;;;;;;6212186;23;20004;-77
2021/05/10 04:55:47;;;;;;;0.10;0.10;;;14.10;85.30;;;;;;6214137;23;20008;-77
2021/05/10 04:58:13;;;;;;;0.10;0.10;;;14.10;84.30;;;;;;6214698;23;20424;-79
2021/05/10 05:00:39;;;;;;;0.10;0.10;;;14.20;84.50;;;;;;6213837;23;20054;-77
2021/05/10 05:03:05;;;;;;;0.10;0.10;;;14.30;83.70;;;;;;6214417;23;20306;-78
2021/05/10 05:05:31;;;;;;;0.10;0.10;;;14.40;83.80;;;;;;6213907;23;20004;-77
2021/05/10 05:07:56;;;;;;;0.10;0.10;;;14.50;82.80;;;;;;6214248;23;20216;-78
2021/05/10 05:10:22;;;;;;;0.10;0.10;;;14.50;84.50;;;;;;6214071;23;20500;-78
2021/05/10 05:12:49;;;;;;;0.10;0.10;;;14.60;83.20;;;;;;6214321;23;20443;-78
2021/05/10 05:15:15;;;;;;;0.10;0.10;;;14.70;81.60;;;;;;6213833;23;19996;-78
2021/05/10 05:17:40;;;;;;;0.10;0.10;;;14.80;83.30;;;;;;6214589;23;20027;-78
2021/05/10 05:20:08;;;;;;;0.10;0.10;;;14.80;82.70;;;;;;6214063;23;20440;-78
2021/05/10 05:22:35;;;;;;;0.10;0.10;;;14.90;81.60;;;;;;6213896;23;20009;-78
2021/05/10 05:25:01;;;;;;;0.10;0.10;;;14.90;83.40;;;;;;6214051;23;20340;-78
2021/05/10 05:27:28;;;;;;;0.10;0.10;;;15.00;83.50;;;;;;6214137;23;19993;-78
2021/05/10 05:29:54;;;;;;;0.10;0.10;;;15.00;83.60;;;;;;6213692;23;20044;-79
2021/05/10 05:32:21;;;;;;;0.10;0.10;;;15.00;81.40;;;;;;6214339;23;20000;-77
2021/05/10 05:34:47;;;;;;;0.10;0.10;;;15.00;82.30;;;;;;6213775;23;20055;-78
2021/05/10 05:37:13;;;;;;;0.10;0.10;;;15.00;81.10;;;;;;6213833;23;20063;-78
2021/05/10 05:39:38;;;;;;;0.10;0.10;;;15.10;81.50;;;;;;6213662;23;20371;-78
2021/05/10 05:42:04;;;;;;;0.10;0.10;;;15.10;83.10;;;;;;6214163;23;20494;-78
2021/05/10 05:44:33;;;;;;;0.10;0.10;;;15.20;81.10;;;;;;6213457;23;20054;-79
2021/05/10 05:47:01;;;;;;;0.10;0.10;;;15.20;81.90;;;;;;6213981;23;20450;-78
2021/05/10 05:49:27;;;;;;;0.10;0.10;;;15.30;81.50;;;;;;6213858;23;20372;-78
2021/05/10 05:51:53;;;;;;;0.10;0.10;;;15.40;81.10;;;;;;6213921;23;20074;-79
2021/05/10 05:54:19;;;;;;;0.10;0.10;;;15.50;81.50;;;;;;6212069;23;19996;-79
2021/05/10 05:56:45;;;;;;;0.10;0.10;;;15.60;82.30;;;;;;6212337;23;20004;-79
2021/05/10 05:59:10;;;;;;;0.10;0.10;;;15.70;80.70;;;;;;6211680;23;20058;-79
2021/05/10 06:01:36;;;;;;;0.10;0.10;;;15.70;81.60;;;;;;6213627;23;20005;-78
2021/05/10 06:04:03;;;;;;;0.10;0.10;;;15.80;81.90;;;;;;6213795;23;20005;-79
2021/05/10 06:06:29;;;;;;;0.10;0.10;;;15.90;80.00;;;;;;6213405;23;20348;-77
2021/05/10 06:08:55;;;;;;;0.10;0.10;;;15.90;79.60;;;;;;6213613;23;20000;-79
2021/05/10 06:11:21;;;;;;;0.10;0.10;;;16.10;78.10;;;;;;6213719;23;20505;-79
2021/05/10 06:13:47;;;;;;;0.10;0.10;;;16.20;77.70;;;;;;6213381;23;20047;-78
2021/05/10 06:16:12;;;;;;;0.10;0.10;;;16.40;77.00;;;;;;6187201;23;20008;-79
2021/05/10 06:18:38;;;;;;;0.10;0.10;;;16.50;76.40;;;;;;6213282;23;20027;-80
2021/05/10 06:21:08;;;;;;;0.10;0.10;;;16.70;76.10;;;;;;6213685;23;20005;-77
2021/05/10 06:23:34;;;;;;;0.10;0.10;;;16.90;77.60;;;;;;6213231;23;20000;-79
2021/05/10 06:26:00;;;;;;;0.10;0.10;;;17.00;74.90;;;;;;6212074;23;20084;-79
2021/05/10 06:28:26;;;;;;;0.10;0.10;;;17.00;76.20;;;;;;6213270;23;20489;-79
2021/05/10 06:30:52;;;;;;;0.10;0.10;;;17.10;74.10;;;;;;6213971;23;20053;-79
2021/05/10 06:33:18;;;;;;;0.10;0.10;;;17.10;71.00;;;;;;6213556;23;20047;-80
2021/05/10 06:35:44;;;;;;;0.10;0.10;;;17.10;75.20;;;;;;6213171;23;20067;-80
2021/05/10 06:38:13;;;;;;;0.10;0.10;;;17.10;74.40;;;;;;6213620;23;20008;-76
2021/05/10 06:40:40;;;;;;;0.10;0.10;;;17.20;73.20;;;;;;6213304;23;20005;-77
2021/05/10 06:43:05;;;;;;;0.00;0.00;;;17.30;71.40;;;;;;6213685;23;20240;-78
2021/05/10 06:45:31;;;;;;;0.10;0.10;;;17.40;76.40;;;;;;6212885;23;20340;-75
2021/05/10 06:47:57;;;;;;;0.10;0.10;;;17.40;76.70;;;;;;6213722;23;20428;-77
2021/05/10 06:50:23;;;;;;;0.10;0.10;;;17.40;77.70;;;;;;6186143;23;20098;-76
2021/05/10 06:52:49;;;;;;;0.10;0.10;;;17.40;77.20;;;;;;6213579;23;20001;-77
2021/05/10 06:55:14;;;;;;;0.10;0.10;;;17.50;75.90;;;;;;6212948;23;20011;-77
2021/05/10 06:57:40;;;;;;;0.10;0.10;;;17.60;76.20;;;;;;6186605;23;20001;-77
2021/05/10 07:00:07;;;;;;;0.10;0.10;;;17.70;76.90;;;;;;6212895;23;20436;-76
2021/05/10 07:02:32;;;;;;;0.10;0.10;;;17.80;76.50;;;;;;6213152;23;20557;-76
2021/05/10 07:04:58;;;;;;;0.10;0.10;;;17.90;73.50;;;;;;6211517;23;20015;-77
2021/05/10 07:07:24;;;;;;;0.10;0.10;;;18.00;71.00;;;;;;6212711;23;20004;-77
2021/05/10 07:09:49;;;;;;;0.10;0.10;;;18.20;74.40;;;;;;6212885;23;20583;-77
2021/05/10 07:12:15;;;;;;;0.10;0.10;;;18.30;72.20;;;;;;6213240;23;20043;-77
2021/05/10 07:14:41;;;;;;;0.10;0.10;;;18.40;72.20;;;;;;6186130;23;20004;-77
2021/05/10 07:17:08;;;;;;;0.10;0.10;;;18.60;70.50;;;;;;6213195;23;20059;-77
2021/05/10 07:19:34;;;;;;;0.10;0.10;;;18.70;70.40;;;;;;6213083;23;20091;-77
2021/05/10 07:22:00;;;;;;;0.03;0.03;;;18.80;66.70;;;;;;6211576;23;20012;-77
2021/05/10 07:24:26;;;;;;;0.10;0.10;;;18.90;61.80;;;;;;6212956;23;20309;-76
2021/05/10 07:26:52;;;;;;;0.10;0.10;;;19.10;61.50;;;;;;6213296;23;20000;-76
2021/05/10 07:29:18;;;;;;;0.10;0.10;;;19.30;58.60;;;;;;6212757;23;19997;-76
2021/05/10 07:31:44;;;;;;;0.10;0.10;;;19.40;59.80;;;;;;6212926;23;20420;-77
2021/05/10 07:34:09;;;;;;;0.05;0.05;;;19.60;59.60;;;;;;6213005;23;20001;-77
2021/05/10 07:36:35;;;;;;;0.10;0.10;;;19.70;57.00;;;;;;6212518;23;20024;-77
2021/05/10 07:39:01;;;;;;;0.10;0.10;;;19.70;56.40;;;;;;6212918;23;20050;-77
2021/05/10 07:41:27;;;;;;;0.10;0.10;;;19.80;55.80;;;;;;6213169;23;20420;-77
2021/05/10 07:43:52;;;;;;;0.10;0.10;;;19.90;55.50;;;;;;6212642;23;20004;-77
2021/05/10 07:46:18;;;;;;;0.10;0.10;;;19.90;57.90;;;;;;6213068;23;20071;-77
2021/05/10 07:48:44;;;;;;;0.10;0.10;;;20.00;54.60;;;;;;6212666;23;20004;-77
2021/05/10 07:51:10;;;;;;;0.10;0.10;;;20.00;54.80;;;;;;6212961;23;20008;-77
2021/05/10 07:53:36;;;;;;;0.10;0.10;;;20.10;55.80;;;;;;6212892;23;20317;-77
2021/05/10 07:56:02;;;;;;;0.10;0.10;;;20.10;59.30;;;;;;6212749;23;20001;-76
2021/05/10 07:58:28;;;;;;;0.10;0.10;;;20.10;58.30;;;;;;6212799;23;20001;-76
2021/05/10 08:00:58;;;;;;;0.00;0.00;;;20.20;59.30;;;;;;6186126;23;20007;-77
2021/05/10 08:03:27;;;;;;;0.10;0.10;;;20.30;55.80;;;;;;6211025;23;20047;-77
2021/05/10 08:05:53;;;;;;;0.10;0.10;;;20.40;54.00;;;;;;6212759;23;20000;-77
2021/05/10 08:08:22;;;;;;;0.10;0.10;;;20.40;56.40;;;;;;6211276;23;20028;-77
2021/05/10 08:10:49;;;;;;;0.10;0.10;;;20.40;55.60;;;;;;6213020;23;20008;-77
2021/05/10 08:13:15;;;;;;;0.10;0.10;;;20.50;55.60;;;;;;6212954;23;20067;-77
2021/05/10 08:15:42;;;;;;;0.10;0.10;;;20.50;59.40;;;;;;6212613;23;20424;-77
2021/05/10 08:18:08;;;;;;;0.10;0.10;;;20.60;62.10;;;;;;6213097;23;19997;-77
2021/05/10 08:20:33;;;;;;;0.10;0.10;;;20.70;62.50;;;;;;6212415;23;19997;-77
2021/05/10 08:22:59;;;;;;;0.10;0.10;;;20.70;60.00;;;;;;6211334;23;20012;-77
2021/05/10 08:25:25;;;;;;;0.10;0.10;;;20.80;60.30;;;;;;6214444;23;20318;-77
2021/05/10 08:27:51;;;;;;;0.10;0.10;;;20.80;58.70;;;;;;6214731;23;20228;-77
2021/05/10 08:30:17;;;;;;;0.10;0.10;;;21.00;60.60;;;;;;6214367;23;20491;-76
2021/05/10 08:32:43;;;;;;;0.10;0.10;;;21.00;58.90;;;;;;6212968;23;20019;-77
2021/05/10 08:35:10;;;;;;;0.10;0.10;;;21.00;59.30;;;;;;6187455;23;21034;-77
2021/05/10 08:37:36;;;;;;;;;;;21.10;54.70;;;;;;6213569;23;20391;-77
2021/05/10 08:40:02;;;;;;;0.10;0.10;;;21.20;56.10;;;;;;6212995;23;19900;-77
2021/05/10 08:42:28;;;;;;;0.10;0.10;;;21.20;57.70;;;;;;6214517;23;20268;-77
2021/05/10 08:44:54;;;;;;;0.10;0.10;;;21.20;57.90;;;;;;6212665;23;20008;-76
2021/05/10 08:47:20;;;;;;;0.10;0.10;;;21.30;57.40;;;;;;6214665;23;20379;-77
2021/05/10 08:49:47;;;;;;;0.10;0.10;;;21.40;59.80;;;;;;6214218;23;20004;-77
2021/05/10 08:52:12;;;;;;;0.10;0.10;;;21.50;56.10;;;;;;6214766;23;20079;-76
2021/05/10 08:54:39;;;;;;;0.10;0.10;;;21.60;54.10;;;;;;6214156;23;20035;-76
2021/05/10 08:57:05;;;;;;;0.10;0.10;;;21.60;59.20;;;;;;6212824;23;20432;-77
2021/05/10 08:59:30;;;;;;;0.10;0.10;;;21.60;56.60;;;;;;6214276;23;20001;-77
2021/05/10 09:01:58;;;;;;;0.10;0.10;;;21.60;56.20;;;;;;6214360;23;19996;-77
2021/05/10 09:04:36;;;;;;;0.10;0.10;;;21.60;56.60;;;;;;6214137;23;20005;-76
2021/05/10 09:07:19;;;;;;;0.10;0.10;;;21.60;55.90;;;;;;6214280;23;20004;-77
2021/05/10 09:10:01;;;;;;;0.10;0.10;;;21.60;55.90;;;;;;6213811;23;20005;-76
2021/05/10 09:12:40;;;;;;;0.10;0.10;;;21.60;56.70;;;;;;6214354;23;20011;-77
2021/05/10 09:15:19;;;;;;;0.10;0.10;;;21.60;56.20;;;;;;6213857;23;20001;-76
2021/05/10 09:18:06;;;;;;;0.10;0.10;;;21.60;53.30;;;;;;6214386;23;20073;-76
2021/05/10 09:20:33;;;;;;;0.10;0.10;;;21.40;52.80;;;;;;6213570;23;20016;-74
2021/05/10 09:23:02;;;;;;;0.10;0.10;;;21.30;52.90;;;;;;6214354;23;20024;-76
2021/05/10 09:25:35;;;;;;;0.10;0.10;;;21.30;52.80;;;;;;6213954;23;20001;-77
2021/05/10 09:28:13;;;;;;;0.10;0.10;;;21.30;52.10;;;;;;6187691;23;20440;-77
2021/05/10 09:30:41;;;;;;;0.10;0.10;;;21.20;51.50;;;;;;6211953;23;20005;-77
2021/05/10 09:33:15;;;;;;;0.10;0.10;;;21.10;52.00;;;;;;6212637;23;20338;-76
2021/05/10 09:35:40;;;;;;;0.10;0.10;;;21.30;52.20;;;;;;6213557;23;20009;-78
2021/05/10 09:38:07;;;;;;;0.10;0.10;;;21.60;50.70;;;;;;6214198;23;20005;-77
2021/05/10 09:40:47;;;;;;;0.10;0.10;;;21.70;49.00;;;;;;6213775;23;20007;-78
2021/05/10 09:43:17;;;;;;;0.10;0.10;;;21.70;49.70;;;;;;6214243;23;20004;-78
2021/05/10 09:45:50;;;;;;;0.10;0.10;;;21.90;48.40;;;;;;6213750;23;20379;-78
2021/05/10 09:48:21;;;;;;;0.10;0.10;;;21.90;48.30;;;;;;6214046;23;20051;-78
2021/05/10 09:50:50;;;;;;;0.10;0.10;;;22.00;47.20;;;;;;6213813;23;20008;-77
2021/05/10 09:53:26;;;;;;;0.10;0.10;;;22.30;45.90;;;;;;6214036;23;20024;-78
2021/05/10 09:55:53;;;;;;;0.10;0.10;;;22.00;44.80;;;;;;6213720;23;20054;-77
2021/05/10 09:58:21;;;;;;;0.10;0.10;;;21.90;45.30;;;;;;6212212;23;20028;-77
2021/05/10 10:00:55;;;;;;;0.10;0.10;;;21.80;44.20;;;;;;6213892;23;20005;-76
2021/05/10 10:03:33;;;;;;;0.10;0.10;;;21.60;44.10;;;;;;6213790;23;20008;-77
2021/05/10 10:06:00;;;;;;;;;;;21.70;46.30;;;;;;6213663;23;21016;-77
2021/05/10 10:08:26;;;;;;;0.10;0.10;;;21.40;46.70;;;;;;6213587;23;19900;-77
2021/05/10 10:10:53;;;;;;;0.10;0.10;;;21.20;46.90;;;;;;6213937;23;20043;-80
2021/05/10 10:13:20;;;;;;;0.10;0.10;;;21.10;48.90;;;;;;6213578;23;20397;-77
2021/05/10 10:15:47;;;;;;;0.10;0.10;;;20.90;52.90;;;;;;6212061;23;20011;-78
2021/05/10 10:18:16;;;;;;;0.10;0.10;;;21.00;52.60;;;;;;6213939;23;19997;-78
2021/05/10 10:20:43;;;;;;;0.10;0.10;;;20.80;55.00;;;;;;6212133;23;20015;-78
2021/05/10 10:23:11;;;;;;;0.10;0.10;;;20.90;53.80;;;;;;6213497;23;19996;-77
2021/05/10 10:25:38;;;;;;;0.10;0.10;;;20.60;51.50;;;;;;6213236;23;20000;-78
2021/05/10 10:28:08;;;;;;;0.10;0.10;;;20.50;50.40;;;;;;6213909;23;20071;-78
2021/05/10 10:30:38;;;;;;;0.10;0.10;;;20.50;48.80;;;;;;6213199;23;20332;-78
2021/05/10 10:33:10;;;;;;;0.10;0.10;;;20.40;49.50;;;;;;6213492;23;20008;-78
2021/05/10 10:35:37;;;;;;;0.10;0.10;;;20.40;49.40;;;;;;6212838;23;20016;-77
2021/05/10 10:38:05;;;;;;;0.10;0.10;;;20.20;50.30;;;;;;6213385;23;20004;-77
2021/05/10 10:40:31;;;;;;;0.10;0.10;;;20.20;52.70;;;;;;6211427;23;20063;-77
2021/05/10 10:43:22;;;;;;;0.10;0.10;;;20.20;51.70;;;;;;6213519;23;20000;-77
2021/05/10 10:46:17;;;;;;;0.10;0.10;;;20.20;51.10;;;;;;6212826;23;20005;-77
2021/05/10 10:48:44;;;;;;;0.10;0.10;;;20.20;51.40;;;;;;6213262;23;20028;-78
2021/05/10 10:51:12;;;;;;;0.10;0.10;;;20.20;52.30;;;;;;6212955;23;20038;-78
2021/05/10 10:53:47;;;;;;;0.10;0.10;;;20.30;52.20;;;;;;6212946;23;20012;-78
2021/05/10 10:56:14;;;;;;;0.10;0.10;;;20.30;52.90;;;;;;6213222;23;20012;-77
2021/05/10 10:58:42;;;;;;;0.10;0.10;;;20.50;54.20;;;;;;6213083;23;20079;-76
2021/05/10 11:01:23;;;;;;;0.10;0.10;;;20.50;51.90;;;;;;6213124;23;20307;-76
2021/05/10 11:03:49;;;;;;;0.10;0.10;;;20.50;55.70;;;;;;6211350;23;20005;-77
2021/05/10 11:06:15;;;;;;;0.10;0.10;;;20.60;54.50;;;;;;6211454;23;20015;-77
2021/05/10 11:08:47;;;;;;;0.10;0.10;;;20.50;53.80;;;;;;6213135;23;20001;-77
2021/05/10 11:11:27;;;;;;;0.10;0.10;;;20.60;55.50;;;;;;6213132;23;20439;-76
2021/05/10 11:13:53;;;;;;;0.10;0.10;;;20.60;54.80;;;;;;6166657;23;20075;-76
2021/05/10 11:16:44;;;;;;;0.10;0.10;;;20.60;54.40;;;;;;6205705;23;20009;-76
2021/05/10 11:19:35;;;;;;;0.10;0.10;;;20.60;54.40;;;;;;6210441;23;20028;-77
2021/05/10 11:22:22;;;;;;;0.10;0.10;;;20.70;55.00;;;;;;6211039;23;19997;-76
2021/05/10 11:24:48;;;;;;;0.10;0.10;;;20.70;55.70;;;;;;6211787;23;20087;-76
2021/05/10 11:27:30;;;;;;;0.10;0.10;;;21.00;55.40;;;;;;6210880;23;20027;-78
2021/05/10 11:29:57;;;;;;;0.10;0.10;;;21.40;52.60;;;;;;6212329;23;20004;-78
2021/05/10 11:32:25;;;;;;;0.10;0.10;;;21.40;53.00;;;;;;6212502;23;20424;-84
2021/05/10 11:34:52;;;;;;;0.10;0.10;;;21.50;50.20;;;;;;6214082;23;20061;-88
2021/05/10 11:37:28;;;;;;;0.10;0.10;;;21.30;49.90;;;;;;6211711;23;20005;-85
2021/05/10 11:39:58;;;;;;;0.10;0.10;;;21.30;51.40;;;;;;6186310;23;20004;-75
2021/05/10 11:42:28;;;;;;;0.10;0.10;;;21.30;52.20;;;;;;6186033;23;20012;-82
2021/05/10 11:44:56;;;;;;;0.10;0.10;;;21.40;50.30;;;;;;6211857;23;20005;-75
2021/05/10 11:47:28;;;;;;;0.10;0.10;;;21.40;51.20;;;;;;6212252;23;19997;-77
2021/05/10 11:49:55;;;;;;;0.10;0.10;;;21.60;51.70;;;;;;6158364;23;20004;-78
2021/05/10 11:52:25;;;;;;;0.10;0.10;;;21.60;48.90;;;;;;6207059;23;20011;-76
2021/05/10 11:54:56;;;;;;;0.10;0.10;;;21.70;51.00;;;;;;6211514;23;20021;-75
2021/05/10 11:57:22;;;;;;;0.10;0.10;;;21.60;50.10;;;;;;6185590;23;20012;-74
2021/05/10 11:59:52;;;;;;;0.10;0.10;;;21.70;48.80;;;;;;6212563;23;20428;-78
2021/05/10 12:02:31;;;;;;;0.20;0.20;;;21.70;49.40;;;;;;6214370;23;20000;-74
2021/05/10 12:04:59;;;;;;;0.20;0.20;;;22.40;50.00;;;;;;6214282;23;20003;-76
2021/05/10 12:07:28;;;;;;;0.10;0.10;;;24.60;43.80;;;;;;6214555;23;20335;-74
2021/05/10 12:10:00;;;;;;;0.20;0.20;;;26.30;42.00;;;;;;6214293;23;20000;-76
2021/05/10 12:12:39;;;;;;;0.20;0.20;;;27.30;40.20;;;;;;6212988;23;20387;-79
2021/05/10 12:15:18;;;;;;;0.10;0.10;;;28.70;37.50;;;;;;6213932;23;19997;-76
2021/05/10 12:17:52;;;;;;;0.10;0.10;;;29.50;35.80;;;;;;6214562;23;20428;-76
2021/05/10 12:20:24;;;;;;;0.10;0.10;;;29.50;34.60;;;;;;6214407;23;20004;-76
2021/05/10 12:22:51;;;;;;;0.20;0.20;;;30.00;35.90;;;;;;6213788;23;20000;-78
2021/05/10 12:25:32;;;;;;;0.20;0.20;;;31.40;34.60;;;;;;6212741;23;20306;-81
2021/05/10 12:27:57;;;;;;;0.30;0.30;;;32.90;32.30;;;;;;6213779;23;20001;-76
2021/05/10 12:30:24;;;;;;;;;;;32.40;32.90;;;;;;6214407;23;20416;-77
2021/05/10 12:32:54;;;;;;;0.20;0.20;;;32.00;32.30;;;;;;6213898;23;20053;-78
2021/05/10 12:35:29;;;;;;;0.17;0.17;;;31.80;33.00;;;;;;6212325;23;20016;-75
2021/05/10 12:37:56;;;;;;;0.15;0.15;;;30.70;32.80;;;;;;6213891;23;20001;-77
2021/05/10 12:40:35;;;;;;;0.20;0.20;;;31.90;33.30;;;;;;6212248;23;20024;-77
2021/05/10 12:43:07;;;;;;;0.20;0.20;;;32.90;31.50;;;;;;6214217;23;20092;-74
2021/05/10 12:45:35;;;;;;;0.20;0.20;;;33.20;29.80;;;;;;6213319;23;20424;-75
2021/05/10 12:48:15;;;;;;;0.20;0.20;;;32.60;30.00;;;;;;6214048;23;20009;-76
2021/05/10 12:50:43;;;;;;;0.20;0.20;;;32.60;31.00;;;;;;6213916;23;20005;-75
2021/05/10 12:53:09;;;;;;;0.10;0.10;;;32.20;31.00;;;;;;6213098;23;20011;-75
2021/05/10 12:55:37;;;;;;;0.13;0.13;;;31.90;30.90;;;;;;6213269;23;20007;-76
2021/05/10 12:58:23;;;;;;;0.10;0.10;;;31.70;30.40;;;;;;6212782;23;20281;-76
2021/05/10 13:00:51;;;;;;;0.10;0.10;;;31.80;30.20;;;;;;6214160;23;20058;-76
2021/05/10 13:03:34;;;;;;;0.10;0.10;;;32.30;30.60;;;;;;6211922;23;20012;-75